Time;durP1;ratioP1;P1;durP2;ratioP2;P2;SDS_P1;SDS_P2;PMS_P1;PMS_P2;Temp;Humidity;BMP_temperature;BMP_pressure;BME280_temperature;BME280_humidity;BME280_pressure;Samples;Min_cycle;Max_cycle;Signal;HPM_P1;HPM_P2
2022/04/08 00:01:25;;;;;;;13.70;2.17;;;6.80;99.90;;;;;;4996967;28;20273;-79
2022/04/08 00:03:54;;;;;;;11.03;2.00;;;6.80;99.90;;;;;;4996847;28;20187;-80
2022/04/08 00:06:20;;;;;;;9.47;1.93;;;6.80;99.90;;;;;;4995985;28;20214;-80
2022/04/08 00:08:46;;;;;;;9.47;1.40;;;6.80;99.90;;;;;;4996866;28;20175;-80
2022/04/08 00:11:12;;;;;;;11.67;1.63;;;6.80;99.90;;;;;;4996735;28;20748;-79
2022/04/08 00:13:38;;;;;;;6.43;1.50;;;6.80;99.90;;;;;;4996776;28;20189;-80
2022/04/08 00:16:04;;;;;;;10.07;1.70;;;6.80;99.90;;;;;;4997008;28;20192;-81
2022/04/08 00:18:30;;;;;;;6.67;1.77;;;6.80;99.90;;;;;;4996715;28;20233;-81
2022/04/08 00:20:56;;;;;;;7.53;1.73;;;6.80;99.90;;;;;;4996626;28;20196;-80
2022/04/08 00:23:22;;;;;;;12.03;2.27;;;6.80;99.90;;;;;;4996459;28;20214;-80
2022/04/08 00:25:48;;;;;;;11.27;2.00;;;6.80;99.90;;;;;;4996456;28;20238;-80
2022/04/08 00:28:14;;;;;;;2.93;1.40;;;6.70;99.90;;;;;;4996441;28;20265;-80
2022/04/08 00:30:39;;;;;;;8.20;1.80;;;6.70;99.90;;;;;;4996291;28;20286;-79
2022/04/08 00:33:05;;;;;;;9.50;1.70;;;6.70;99.90;;;;;;4995643;28;20222;-80
2022/04/08 00:35:31;;;;;;;2.87;1.50;;;6.70;99.90;;;;;;4996683;28;20274;-79
2022/04/08 00:37:57;;;;;;;6.00;1.47;;;6.60;99.90;;;;;;4996518;28;20211;-80
2022/04/08 00:40:23;;;;;;;6.37;1.50;;;6.60;99.90;;;;;;4996395;28;20204;-80
2022/04/08 00:42:49;;;;;;;7.97;1.50;;;6.60;99.90;;;;;;4995633;28;20712;-80
2022/04/08 00:45:14;;;;;;;6.60;1.47;;;6.60;99.90;;;;;;4996205;28;20215;-81
2022/04/08 00:47:41;;;;;;;2.53;1.23;;;6.50;99.90;;;;;;4996149;28;20267;-81
2022/04/08 00:50:08;;;;;;;7.10;1.47;;;6.50;99.90;;;;;;4996137;28;20570;-81
2022/04/08 00:52:35;;;;;;;5.43;1.17;;;6.40;99.90;;;;;;4995976;28;20263;-82
2022/04/08 00:55:06;;;;;;;6.40;1.63;;;6.30;99.90;;;;;;4996376;28;20178;-81
2022/04/08 00:57:32;;;;;;;5.23;1.00;;;6.20;99.90;;;;;;4996161;28;20190;-82
2022/04/08 01:00:01;;;;;;;3.83;1.47;;;6.20;99.90;;;;;;4996727;28;20290;-83
2022/04/08 01:02:29;;;;;;;3.57;1.30;;;6.20;99.90;;;;;;4996603;28;20180;-81
2022/04/08 01:04:55;;;;;;;4.87;1.30;;;6.20;99.90;;;;;;4996915;28;20280;-81
2022/04/08 01:07:21;;;;;;;6.53;1.63;;;6.20;99.90;;;;;;4996501;28;20637;-82
2022/04/08 01:09:47;;;;;;;5.47;1.33;;;6.10;99.90;;;;;;4996535;28;20194;-82
2022/04/08 01:12:13;;;;;;;4.87;1.20;;;6.10;99.90;;;;;;4996569;28;20517;-82
2022/04/08 01:14:39;;;;;;;8.23;1.57;;;6.10;99.90;;;;;;4996764;28;20187;-81
2022/04/08 01:17:05;;;;;;;7.03;1.50;;;6.00;99.90;;;;;;4996540;28;20179;-82
2022/04/08 01:19:30;;;;;;;6.03;1.90;;;6.00;99.90;;;;;;4996748;28;20209;-81
2022/04/08 01:21:56;;;;;;;4.90;1.53;;;6.00;99.90;;;;;;4996761;28;20179;-80
2022/04/08 01:24:24;;;;;;;6.53;1.60;;;5.90;99.90;;;;;;4996513;28;20175;-81
2022/04/08 01:26:52;;;;;;;2.07;1.10;;;5.90;99.90;;;;;;4996758;28;20624;-81
2022/04/08 01:29:18;;;;;;;3.10;1.33;;;5.90;99.90;;;;;;4995672;28;20281;-80
2022/04/08 01:31:45;;;;;;;4.57;1.60;;;5.80;99.90;;;;;;4995310;28;20210;-81
2022/04/08 01:34:14;;;;;;;5.87;1.43;;;5.80;99.90;;;;;;4995267;28;20206;-81
2022/04/08 01:36:40;;;;;;;3.27;1.40;;;5.70;99.90;;;;;;4995360;28;20221;-81
2022/04/08 01:39:06;;;;;;;4.33;1.60;;;5.80;99.90;;;;;;4995474;28;20191;-82
2022/04/08 01:41:32;;;;;;;5.33;1.60;;;5.60;99.90;;;;;;4994395;28;20627;-80
2022/04/08 01:43:58;;;;;;;5.90;1.47;;;5.60;99.90;;;;;;4995133;28;20198;-81
2022/04/08 01:46:24;;;;;;;3.43;1.30;;;5.60;99.90;;;;;;4995094;28;20210;-82
2022/04/08 01:48:54;;;;;;;2.17;1.30;;;5.60;99.90;;;;;;4979142;28;20218;-81
2022/04/08 01:51:23;;;;;;;2.97;1.20;;;5.70;99.90;;;;;;4995132;28;20591;-81
2022/04/08 01:53:49;;;;;;;1.70;1.27;;;5.60;99.90;;;;;;4995126;28;20178;-81
2022/04/08 01:56:15;;;;;;;3.83;1.83;;;5.60;99.90;;;;;;4995151;28;20178;-81
2022/04/08 01:58:41;;;;;;;5.20;1.60;;;5.60;99.90;;;;;;4994983;28;20186;-81
2022/04/08 02:01:06;;;;;;;4.13;1.17;;;5.50;99.90;;;;;;4994550;28;20188;-81
2022/04/08 02:03:32;;;;;;;2.27;1.00;;;5.60;99.90;;;;;;4994629;28;20182;-81
2022/04/08 02:05:59;;;;;;;2.63;0.97;;;5.50;99.90;;;;;;4994467;28;20256;-81
2022/04/08 02:08:24;;;;;;;4.50;1.13;;;5.50;99.90;;;;;;4994737;28;20182;-81
2022/04/08 02:10:53;;;;;;;1.53;0.83;;;5.50;99.90;;;;;;4994690;28;20621;-80
2022/04/08 02:13:19;;;;;;;2.50;0.80;;;5.50;99.90;;;;;;4994712;28;20185;-80
2022/04/08 02:15:46;;;;;;;4.17;1.17;;;5.60;99.90;;;;;;4994672;28;20218;-81
2022/04/08 02:18:12;;;;;;;4.73;0.90;;;5.50;99.90;;;;;;4995002;28;20187;-80
2022/04/08 02:20:39;;;;;;;3.47;0.87;;;5.60;99.90;;;;;;4994683;28;20293;-80
2022/04/08 02:23:05;;;;;;;1.33;0.73;;;5.60;99.90;;;;;;4994460;28;20182;-80
2022/04/08 02:25:31;;;;;;;5.20;0.93;;;5.60;99.90;;;;;;4994609;28;20210;-81
2022/04/08 02:27:58;;;;;;;3.77;0.70;;;5.50;99.90;;;;;;4994862;28;20179;-81
2022/04/08 02:30:24;;;;;;;1.80;0.77;;;5.50;99.90;;;;;;4997470;28;20749;-81
2022/04/08 02:32:50;;;;;;;2.77;0.70;;;5.50;99.90;;;;;;4998196;28;20324;-81
2022/04/08 02:35:16;;;;;;;0.77;0.60;;;5.50;99.90;;;;;;4998519;28;20182;-80
2022/04/08 02:37:42;;;;;;;2.07;0.80;;;5.50;99.90;;;;;;4998477;28;20212;-81
2022/04/08 02:40:08;;;;;;;2.27;0.90;;;5.60;99.90;;;;;;4998435;28;20761;-80
2022/04/08 02:42:34;;;;;;;2.50;0.73;;;5.60;99.90;;;;;;4997782;28;20194;-81
2022/04/08 02:44:59;;;;;;;2.70;0.77;;;5.50;99.90;;;;;;4998400;28;20670;-81
2022/04/08 02:47:25;;;;;;;4.07;0.80;;;5.60;99.90;;;;;;4998583;28;20179;-81
2022/04/08 02:49:51;;;;;;;0.67;0.67;;;5.60;99.90;;;;;;4998369;28;20265;-82
2022/04/08 02:52:16;;;;;;;1.50;0.97;;;5.50;99.90;;;;;;4998210;28;20181;-80
2022/04/08 02:54:42;;;;;;;2.20;0.77;;;5.50;99.90;;;;;;4998367;28;20186;-82
2022/04/08 02:57:08;;;;;;;1.93;0.70;;;5.50;99.90;;;;;;4998333;28;20173;-81
2022/04/08 02:59:33;;;;;;;4.00;0.70;;;5.50;99.90;;;;;;4998497;28;20289;-81
2022/04/08 03:01:59;;;;;;;0.57;0.50;;;5.40;99.90;;;;;;4997986;28;20295;-80
2022/04/08 03:04:25;;;;;;;5.27;0.90;;;5.40;99.90;;;;;;4998001;28;20176;-81
2022/04/08 03:06:52;;;;;;;0.70;0.70;;;5.30;99.90;;;;;;4998120;28;20210;-81
2022/04/08 03:09:18;;;;;;;3.17;0.80;;;5.30;99.90;;;;;;4997924;28;20199;-82
2022/04/08 03:11:43;;;;;;;2.93;0.90;;;5.30;99.90;;;;;;4997926;28;20549;-82
2022/04/08 03:14:09;;;;;;;3.80;0.87;;;5.20;99.90;;;;;;4998017;28;20232;-81
2022/04/08 03:16:35;;;;;;;1.80;0.73;;;5.10;99.90;;;;;;4998011;28;20178;-81
2022/04/08 03:19:00;;;;;;;3.33;0.90;;;5.10;99.90;;;;;;4997664;28;20253;-81
2022/04/08 03:21:27;;;;;;;3.10;1.00;;;5.10;99.90;;;;;;4997644;28;20228;-81
2022/04/08 03:23:53;;;;;;;3.03;0.83;;;5.10;99.90;;;;;;4997648;28;20667;-81
2022/04/08 03:26:19;;;;;;;4.77;1.03;;;5.20;99.90;;;;;;4997683;28;20637;-82
2022/04/08 03:28:45;;;;;;;1.40;1.00;;;5.10;99.90;;;;;;4997447;28;20190;-80
2022/04/08 03:31:13;;;;;;;3.33;1.00;;;5.10;99.90;;;;;;4997387;28;20253;-80
2022/04/08 03:33:39;;;;;;;1.10;0.70;;;5.20;99.90;;;;;;4997338;28;20206;-81
2022/04/08 03:36:05;;;;;;;7.13;1.33;;;5.10;99.90;;;;;;4998341;28;20189;-81
2022/04/08 03:38:31;;;;;;;2.23;1.20;;;5.10;99.90;;;;;;5001803;28;20183;-82
2022/04/08 03:40:57;;;;;;;4.60;1.20;;;5.00;99.90;;;;;;5000103;28;20205;-83
2022/04/08 03:43:23;;;;;;;6.33;1.20;;;4.90;99.90;;;;;;4998029;28;20218;-81
2022/04/08 03:45:49;;;;;;;8.10;1.60;;;4.80;99.90;;;;;;4997234;28;20202;-82
2022/04/08 03:48:14;;;;;;;9.43;1.30;;;4.80;99.90;;;;;;4997458;28;20167;-80
2022/04/08 03:50:40;;;;;;;10.27;1.80;;;4.80;99.90;;;;;;4997209;28;20241;-81
2022/04/08 03:53:09;;;;;;;5.33;1.30;;;4.70;99.90;;;;;;5014698;28;20182;-80
2022/04/08 03:55:35;;;;;;;12.00;1.50;;;4.70;99.90;;;;;;4997291;28;20313;-81
2022/04/08 03:58:01;;;;;;;5.73;1.27;;;4.70;99.90;;;;;;4997071;28;20677;-81
2022/04/08 04:00:26;;;;;;;11.70;1.60;;;4.70;99.90;;;;;;4997093;28;20322;-80
2022/04/08 04:02:52;;;;;;;7.43;1.40;;;4.60;99.90;;;;;;5014852;28;20175;-80
2022/04/08 04:05:18;;;;;;;8.13;1.60;;;4.60;99.90;;;;;;4996952;28;20198;-81
2022/04/08 04:07:43;;;;;;;12.03;2.03;;;4.50;99.90;;;;;;4996995;28;20526;-81
2022/04/08 04:10:11;;;;;;;7.53;1.37;;;4.50;99.90;;;;;;4996818;28;20198;-80
2022/04/08 04:12:38;;;;;;;15.27;1.50;;;4.40;99.90;;;;;;4996557;28;20186;-81
2022/04/08 04:15:04;;;;;;;3.60;1.40;;;4.50;99.90;;;;;;4996797;28;20171;-80
2022/04/08 04:17:30;;;;;;;14.50;1.70;;;4.40;99.90;;;;;;4996748;28;20178;-80
2022/04/08 04:19:56;;;;;;;9.00;1.67;;;4.40;99.90;;;;;;4996526;28;20542;-81
2022/04/08 04:22:22;;;;;;;6.97;1.50;;;4.40;99.90;;;;;;4996272;28;20175;-79
2022/04/08 04:24:47;;;;;;;8.07;2.20;;;4.40;99.90;;;;;;5014071;28;20176;-80
2022/04/08 04:27:13;;;;;;;6.03;2.00;;;4.40;99.90;;;;;;4996494;28;20715;-81
2022/04/08 04:29:39;;;;;;;6.20;1.40;;;4.40;99.90;;;;;;4996451;28;20203;-81
2022/04/08 04:32:06;;;;;;;11.10;1.63;;;4.30;99.90;;;;;;4996171;28;20190;-80
2022/04/08 04:34:33;;;;;;;7.10;2.10;;;4.30;99.90;;;;;;4996285;28;20714;-81
2022/04/08 04:36:59;;;;;;;4.53;1.73;;;4.20;99.90;;;;;;4996268;28;20281;-81
2022/04/08 04:39:24;;;;;;;15.60;2.07;;;4.30;99.90;;;;;;4996292;28;20281;-81
2022/04/08 04:41:50;;;;;;;10.20;1.90;;;4.30;99.90;;;;;;5012997;28;20183;-81
2022/04/08 04:44:16;;;;;;;12.80;1.67;;;4.30;99.90;;;;;;4996083;28;20179;-80
2022/04/08 04:46:43;;;;;;;11.63;2.00;;;4.20;99.90;;;;;;4996073;28;20214;-80
2022/04/08 04:49:10;;;;;;;12.70;1.83;;;4.20;99.90;;;;;;4995934;28;20205;-81
2022/04/08 04:51:35;;;;;;;13.83;1.97;;;4.20;99.90;;;;;;4995750;28;20265;-81
2022/04/08 04:54:01;;;;;;;7.23;1.70;;;4.20;99.90;;;;;;4995756;28;20218;-80
2022/04/08 04:56:27;;;;;;;16.07;2.37;;;4.30;99.90;;;;;;4996032;28;20183;-81
2022/04/08 04:58:53;;;;;;;11.77;2.10;;;4.30;99.90;;;;;;4996079;28;20186;-80
2022/04/08 05:01:19;;;;;;;9.37;1.50;;;4.30;99.90;;;;;;4995636;28;20187;-81
2022/04/08 05:03:45;;;;;;;13.13;1.87;;;4.30;99.90;;;;;;4995928;28;20201;-80
2022/04/08 05:06:10;;;;;;;10.67;2.50;;;4.30;99.90;;;;;;4995706;28;20584;-81
2022/04/08 05:08:36;;;;;;;10.97;2.00;;;4.30;99.90;;;;;;4996001;28;20533;-81
2022/04/08 05:11:02;;;;;;;12.50;2.40;;;4.40;99.90;;;;;;4995585;28;20202;-81
2022/04/08 05:13:28;;;;;;;9.80;1.77;;;4.50;99.90;;;;;;4995620;28;20181;-80
2022/04/08 05:15:53;;;;;;;12.70;2.00;;;4.50;99.90;;;;;;4995781;28;20204;-80
2022/04/08 05:18:19;;;;;;;11.70;1.80;;;4.50;99.90;;;;;;4995581;28;20182;-81
2022/04/08 05:20:45;;;;;;;13.63;2.03;;;4.50;99.90;;;;;;4995545;28;20206;-81
2022/04/08 05:23:10;;;;;;;11.03;1.67;;;4.60;99.90;;;;;;4994985;28;20232;-80
2022/04/08 05:25:36;;;;;;;9.27;1.97;;;4.50;99.90;;;;;;4995306;28;20198;-81
2022/04/08 05:28:02;;;;;;;10.83;2.10;;;4.60;99.90;;;;;;4995278;28;20200;-80
2022/04/08 05:30:28;;;;;;;12.50;2.20;;;4.60;99.90;;;;;;4995175;28;20198;-80
2022/04/08 05:32:55;;;;;;;16.10;2.30;;;4.60;99.90;;;;;;4994448;28;20706;-81
2022/04/08 05:35:21;;;;;;;17.07;2.83;;;4.70;99.90;;;;;;4995671;28;20206;-81
2022/04/08 05:37:47;;;;;;;11.17;2.17;;;4.70;99.90;;;;;;4995316;28;20534;-81
2022/04/08 05:40:16;;;;;;;11.47;1.83;;;4.70;99.90;;;;;;4995450;28;20596;-82
2022/04/08 05:42:44;;;;;;;11.37;2.17;;;4.80;99.90;;;;;;4994550;28;20198;-82
2022/04/08 05:45:11;;;;;;;15.50;2.03;;;4.80;99.90;;;;;;4995204;28;20244;-80
2022/04/08 05:47:38;;;;;;;14.90;2.20;;;4.80;99.90;;;;;;4995593;28;20701;-82
2022/04/08 05:50:04;;;;;;;8.03;1.60;;;4.90;99.90;;;;;;4995572;28;20194;-80
2022/04/08 05:52:30;;;;;;;7.93;1.80;;;4.80;99.90;;;;;;4995069;28;20186;-81
2022/04/08 05:54:56;;;;;;;9.07;2.07;;;4.80;99.90;;;;;;4995773;28;20170;-80
2022/04/08 05:57:21;;;;;;;8.33;1.50;;;4.80;99.90;;;;;;4996733;28;20267;-81
2022/04/08 05:59:48;;;;;;;14.63;3.10;;;4.80;99.90;;;;;;4996800;28;20194;-81
2022/04/08 06:02:14;;;;;;;5.87;1.97;;;4.80;99.90;;;;;;4997023;28;20225;-80
2022/04/08 06:04:40;;;;;;;8.97;1.80;;;4.90;99.90;;;;;;4995993;28;20213;-81
2022/04/08 06:07:05;;;;;;;15.83;1.97;;;5.20;99.90;;;;;;4996311;28;20210;-81
2022/04/08 06:09:32;;;;;;;7.93;2.23;;;5.50;99.90;;;;;;4995873;28;20198;-81
2022/04/08 06:11:59;;;;;;;12.73;3.00;;;5.70;99.90;;;;;;4995543;28;20186;-82
2022/04/08 06:14:26;;;;;;;13.50;1.87;;;5.80;99.90;;;;;;4996041;28;20198;-81
2022/04/08 06:16:55;;;;;;;13.70;1.87;;;5.90;99.90;;;;;;5013858;28;20168;-79
2022/04/08 06:19:20;;;;;;;9.60;2.07;;;5.90;99.90;;;;;;5021409;22;20238;-79
2022/04/08 06:21:46;;;;;;;11.53;2.00;;;6.00;99.90;;;;;;5013762;28;20179;-80
2022/04/08 06:24:12;;;;;;;4.20;2.20;;;6.00;99.90;;;;;;5015582;28;20178;-79
2022/04/08 06:26:38;;;;;;;10.47;1.63;;;6.10;99.90;;;;;;5020569;28;20283;-78
2022/04/08 06:29:04;;;;;;;13.10;2.20;;;6.20;99.90;;;;;;5020189;28;20203;-79
2022/04/08 06:31:32;;;;;;;9.20;1.60;;;6.40;99.90;;;;;;5015614;28;20673;-79
2022/04/08 06:34:01;;;;;;;12.80;1.97;;;6.50;99.90;;;;;;5017771;28;20202;-78
2022/04/08 06:36:28;;;;;;;9.50;2.00;;;6.20;99.90;;;;;;5015204;28;20181;-79
2022/04/08 06:38:55;;;;;;;11.43;1.87;;;6.40;99.90;;;;;;5015309;28;20172;-79
2022/04/08 06:41:21;;;;;;;7.73;2.13;;;6.70;99.90;;;;;;5014802;28;20270;-79
2022/04/08 06:43:47;;;;;;;14.00;2.67;;;6.90;99.90;;;;;;5014683;28;20174;-79
2022/04/08 06:46:12;;;;;;;8.73;2.00;;;7.10;99.90;;;;;;5015488;28;20698;-77
2022/04/08 06:48:38;;;;;;;12.80;2.00;;;7.10;99.90;;;;;;5014704;28;20639;-78
2022/04/08 06:51:04;;;;;;;9.37;1.87;;;7.50;99.90;;;;;;5015073;28;20651;-77
2022/04/08 06:53:34;;;;;;;10.57;2.30;;;7.60;99.90;;;;;;5015416;28;20195;-77
2022/04/08 06:56:03;;;;;;;7.83;2.17;;;7.60;99.90;;;;;;5014951;28;20174;-80
2022/04/08 06:58:30;;;;;;;11.27;2.30;;;7.40;99.90;;;;;;5015222;28;20179;-81
2022/04/08 07:00:57;;;;;;;11.23;2.63;;;7.50;99.90;;;;;;5013029;28;20275;-81
2022/04/08 07:03:22;;;;;;;6.33;2.07;;;7.40;99.90;;;;;;5015092;28;20181;-79
2022/04/08 07:05:49;;;;;;;11.10;2.00;;;7.80;99.90;;;;;;5015557;28;20197;-82
2022/04/08 07:08:15;;;;;;;7.60;2.17;;;7.60;99.90;;;;;;5032800;28;20170;-81
2022/04/08 07:10:40;;;;;;;10.27;2.13;;;7.30;99.90;;;;;;5014954;28;20295;-80
2022/04/08 07:13:09;;;;;;;8.50;2.30;;;7.40;99.90;;;;;;5014975;28;20241;-80
2022/04/08 07:15:35;;;;;;;9.57;2.33;;;7.40;99.90;;;;;;5016438;28;20175;-79
2022/04/08 07:18:04;;;;;;;11.60;2.10;;;7.60;99.90;;;;;;5018329;28;20272;-78
2022/04/08 07:20:30;;;;;;;7.17;2.03;;;7.70;99.90;;;;;;5019226;28;20203;-80
2022/04/08 07:23:01;;;;;;;16.63;2.63;;;7.50;99.90;;;;;;5031348;28;20271;-80
2022/04/08 07:25:27;;;;;;;10.23;2.20;;;7.60;99.90;;;;;;5038444;28;20194;-79
2022/04/08 07:27:56;;;;;;;7.80;2.37;;;7.60;99.90;;;;;;5038437;28;20307;-80
2022/04/08 07:30:23;;;;;;;15.63;2.40;;;7.50;99.90;;;;;;5037914;28;20193;-81
2022/04/08 07:32:54;;;;;;;12.90;2.57;;;7.80;99.90;;;;;;5038042;28;20175;-78
2022/04/08 07:35:21;;;;;;;9.63;2.77;;;8.20;99.90;;;;;;5037488;28;20177;-80
2022/04/08 07:37:46;;;;;;;10.30;2.37;;;8.30;99.90;;;;;;5036999;28;20568;-79
2022/04/08 07:40:13;;;;;;;10.43;2.33;;;8.60;99.90;;;;;;5037564;28;20195;-77
2022/04/08 07:42:39;;;;;;;8.00;2.20;;;9.10;99.90;;;;;;5036859;28;20180;-79
2022/04/08 07:45:06;;;;;;;10.93;2.20;;;9.30;99.90;;;;;;5038005;28;20176;-80
2022/04/08 07:47:33;;;;;;;9.03;1.83;;;8.90;99.90;;;;;;5037683;28;20167;-80
2022/04/08 07:50:00;;;;;;;10.30;2.40;;;8.80;99.90;;;;;;5037438;28;20751;-79
2022/04/08 07:52:27;;;;;;;5.80;2.40;;;8.50;99.90;;;;;;5037775;28;20182;-80
2022/04/08 07:54:54;;;;;;;8.37;2.00;;;8.40;99.90;;;;;;5036771;28;20206;-80
2022/04/08 07:57:19;;;;;;;5.43;1.90;;;8.60;99.90;;;;;;5037534;28;20266;-79
2022/04/08 07:59:45;;;;;;;5.87;2.20;;;8.70;99.90;;;;;;5037705;28;20236;-80
2022/04/08 08:02:11;;;;;;;9.37;2.13;;;8.70;99.90;;;;;;5036629;28;20169;-80
2022/04/08 08:04:37;;;;;;;9.07;2.13;;;8.90;99.90;;;;;;5036686;28;20181;-79
2022/04/08 08:07:03;;;;;;;13.17;2.10;;;8.90;99.90;;;;;;5037354;28;20245;-81
2022/04/08 08:09:29;;;;;;;9.47;2.13;;;8.90;99.90;;;;;;5037731;28;20186;-80
2022/04/08 08:11:54;;;;;;;7.93;2.30;;;8.90;99.90;;;;;;5037455;28;20177;-80
2022/04/08 08:14:20;;;;;;;12.10;2.00;;;8.90;99.90;;;;;;5037933;28;20167;-80
2022/04/08 08:16:46;;;;;;;10.50;2.27;;;9.00;99.90;;;;;;5038379;28;20611;-79
2022/04/08 08:19:11;;;;;;;6.83;1.90;;;8.80;99.90;;;;;;5038678;28;20619;-80
2022/04/08 08:21:37;;;;;;;7.37;2.00;;;9.00;99.90;;;;;;5037977;28;20175;-79
2022/04/08 08:24:03;;;;;;;9.43;2.20;;;9.20;99.90;;;;;;5037901;28;20184;-80
2022/04/08 08:26:30;;;;;;;8.57;2.13;;;9.10;99.90;;;;;;5037641;28;20689;-80
2022/04/08 08:28:56;;;;;;;7.37;1.87;;;8.80;99.90;;;;;;5037891;28;20173;-80
2022/04/08 08:31:22;;;;;;;10.13;2.00;;;9.10;99.90;;;;;;5038039;28;20258;-79
2022/04/08 08:33:49;;;;;;;4.73;1.90;;;8.90;99.90;;;;;;5037519;28;20230;-80
2022/04/08 08:36:14;;;;;;;8.53;1.90;;;8.60;99.90;;;;;;5037533;28;20234;-80
2022/04/08 08:38:40;;;;;;;9.63;1.80;;;8.80;99.90;;;;;;5037674;28;20628;-79
2022/04/08 08:41:07;;;;;;;11.27;1.93;;;8.90;99.90;;;;;;5037725;28;20175;-80
2022/04/08 08:43:33;;;;;;;7.40;1.70;;;8.90;99.90;;;;;;5037279;28;20171;-80
2022/04/08 08:46:02;;;;;;;4.63;1.80;;;9.00;99.90;;;;;;5036701;28;20616;-79
2022/04/08 08:48:32;;;;;;;7.50;1.90;;;9.20;99.90;;;;;;5037926;28;20543;-78
2022/04/08 08:51:02;;;;;;;5.80;1.80;;;9.50;99.90;;;;;;5037630;28;20735;-80
2022/04/08 08:53:30;;;;;;;4.57;1.47;;;9.70;99.90;;;;;;5037151;28;20662;-80
2022/04/08 08:55:56;;;;;;;8.50;1.60;;;9.70;99.90;;;;;;5037748;28;20184;-79
2022/04/08 08:58:23;;;;;;;8.57;1.93;;;9.90;99.90;;;;;;5038474;28;20614;-79
2022/04/08 09:00:49;;;;;;;5.83;1.67;;;9.70;99.90;;;;;;5037336;28;20189;-78
2022/04/08 09:03:15;;;;;;;5.57;1.73;;;9.90;99.90;;;;;;5037260;28;20176;-80
2022/04/08 09:05:45;;;;;;;5.63;1.83;;;9.90;99.90;;;;;;5037835;28;20194;-79
2022/04/08 09:08:13;;;;;;;8.40;2.00;;;9.90;99.90;;;;;;5037282;28;20179;-80
2022/04/08 09:10:43;;;;;;;6.70;2.00;;;9.60;99.90;;;;;;5036751;28;20275;-80
2022/04/08 09:13:10;;;;;;;4.43;1.70;;;9.50;99.90;;;;;;5037294;28;20236;-79
2022/04/08 09:15:39;;;;;;;10.97;1.50;;;9.60;99.90;;;;;;5037241;28;20184;-80
2022/04/08 09:18:05;;;;;;;6.33;1.50;;;9.60;99.90;;;;;;5037473;28;20246;-81
2022/04/08 09:20:39;;;;;;;6.87;1.40;;;9.60;99.90;;;;;;5037422;28;20675;-81
2022/04/08 09:23:07;;;;;;;9.33;1.70;;;9.60;99.90;;;;;;5037800;28;20179;-80
2022/04/08 09:25:34;;;;;;;6.20;1.50;;;9.80;99.90;;;;;;5038044;28;20734;-81
2022/04/08 09:28:18;;;;;;;7.20;1.80;;;9.90;99.90;;;;;;5037227;28;20184;-79
2022/04/08 09:30:49;;;;;;;8.70;1.70;;;10.30;99.90;;;;;;5037803;28;20230;-79
2022/04/08 09:33:20;;;;;;;8.77;1.90;;;9.90;99.90;;;;;;5038537;28;20177;-81
2022/04/08 09:35:48;;;;;;;6.27;1.60;;;9.80;99.90;;;;;;5038738;28;20203;-78
2022/04/08 09:38:21;;;;;;;7.07;1.80;;;9.70;99.90;;;;;;5038138;28;20181;-80
2022/04/08 09:40:48;;;;;;;6.47;1.70;;;9.70;99.90;;;;;;5036944;28;20654;-81
2022/04/08 09:43:14;;;;;;;5.00;1.80;;;9.70;99.90;;;;;;5055145;28;20173;-81
2022/04/08 09:45:40;;;;;;;7.67;1.60;;;9.70;99.90;;;;;;5037155;28;20208;-80
2022/04/08 09:48:07;;;;;;;4.03;1.50;;;9.60;99.90;;;;;;5037632;28;20680;-82
2022/04/08 09:50:36;;;;;;;7.20;1.50;;;9.60;99.90;;;;;;5037217;28;20201;-79
2022/04/08 09:53:05;;;;;;;5.77;1.60;;;9.70;99.90;;;;;;5037559;28;20178;-81
2022/04/08 09:55:32;;;;;;;9.70;1.73;;;9.60;99.90;;;;;;5037387;28;20541;-80
2022/04/08 09:58:00;;;;;;;4.47;1.67;;;9.70;99.90;;;;;;5037733;28;20179;-81
2022/04/08 10:00:27;;;;;;;5.07;1.70;;;9.90;99.90;;;;;;5038092;28;20197;-81
2022/04/08 10:02:59;;;;;;;12.57;1.70;;;10.10;99.10;;;;;;5036265;28;20231;-82
2022/04/08 10:05:24;;;;;;;7.87;1.60;;;10.00;99.90;;;;;;5037373;28;20621;-82
2022/04/08 10:07:53;;;;;;;6.67;1.63;;;9.80;99.90;;;;;;5038896;28;20197;-83
2022/04/08 10:10:43;;;;;;;5.80;1.60;;;9.90;99.90;;;;;;5036840;28;20203;-86
2022/04/08 10:13:39;;;;;;;14.93;3.33;;;10.50;99.60;;;;;;5026013;28;20167;-81
2022/04/08 10:16:16;;;;;;;16.63;3.27;;;10.80;98.00;;;;;;5040874;28;20274;-84
2022/04/08 10:18:43;;;;;;;23.60;4.93;;;10.40;97.90;;;;;;5039414;28;20284;-83
2022/04/08 10:21:12;;;;;;;7.13;1.70;;;10.20;99.20;;;;;;5038657;28;20272;-81
2022/04/08 10:23:52;;;;;;;5.87;1.60;;;10.30;99.10;;;;;;5042472;28;20186;-83
2022/04/08 10:26:23;;;;;;;7.83;2.50;;;9.90;98.70;;;;;;5034703;28;20197;-81
2022/04/08 10:28:51;;;;;;;7.83;2.10;;;10.20;99.90;;;;;;5020096;28;20545;-81
2022/04/08 10:31:20;;;;;;;18.03;2.50;;;10.00;99.90;;;;;;5019417;28;20178;-82
2022/04/08 10:34:06;;;;;;;7.80;1.70;;;10.20;99.50;;;;;;5018366;28;20173;-80
2022/04/08 10:36:32;;;;;;;9.13;1.80;;;9.90;98.20;;;;;;5035320;28;20177;-80
2022/04/08 10:39:17;;;;;;;6.57;2.00;;;10.00;99.10;;;;;;5033235;28;20212;-79
2022/04/08 10:42:00;;;;;;;5.03;1.80;;;9.70;97.80;;;;;;5030798;28;20200;-82
2022/04/08 10:44:35;;;;;;;11.30;2.43;;;9.70;98.00;;;;;;5046024;28;20184;-80
2022/04/08 10:47:10;;;;;;;10.70;2.30;;;10.00;98.90;;;;;;5050346;28;20204;-79
2022/04/08 10:49:58;;;;;;;6.27;2.20;;;9.70;98.00;;;;;;5046783;28;20270;-81
2022/04/08 10:52:26;;;;;;;9.00;2.07;;;9.70;98.80;;;;;;5042598;28;20173;-81
2022/04/08 10:55:07;;;;;;;5.37;2.17;;;10.00;98.50;;;;;;5036188;28;20167;-81
2022/04/08 10:57:40;;;;;;;8.73;2.00;;;10.00;98.20;;;;;;5024131;28;20167;-79
2022/04/08 11:00:10;;;;;;;7.93;1.73;;;10.10;97.90;;;;;;5019919;28;20208;-77
2022/04/08 11:02:37;;;;;;;5.50;1.90;;;9.90;95.70;;;;;;5035519;28;20220;-79
2022/04/08 11:05:08;;;;;;;7.70;1.80;;;10.00;96.10;;;;;;5024172;28;20583;-79
2022/04/08 11:07:34;;;;;;;7.33;2.10;;;10.20;97.30;;;;;;5037784;28;20176;-78
2022/04/08 11:10:00;;;;;;;5.80;2.43;;;10.50;96.90;;;;;;5034779;28;21058;-82
2022/04/08 11:12:28;;;;;;;6.83;1.87;;;10.30;95.90;;;;;;5039471;28;20183;-79
2022/04/08 11:14:58;;;;;;;7.60;2.03;;;10.10;94.90;;;;;;5030864;28;20168;-81
2022/04/08 11:17:34;;;;;;;3.03;1.60;;;10.30;96.50;;;;;;5036142;28;20173;-81
2022/04/08 11:20:00;;;;;;;4.33;1.70;;;10.40;96.50;;;;;;5029992;28;20220;-80
2022/04/08 11:22:26;;;;;;;4.90;1.57;;;10.40;96.00;;;;;;5039525;28;20181;-80
2022/04/08 11:24:59;;;;;;;5.60;1.80;;;10.40;96.80;;;;;;5020398;28;20186;-79
2022/04/08 11:27:25;;;;;;;5.03;1.80;;;10.30;95.30;;;;;;5017793;28;20201;-80
2022/04/08 11:29:50;;;;;;;6.23;1.90;;;10.10;94.90;;;;;;5018117;28;20727;-81
2022/04/08 11:32:17;;;;;;;7.40;2.13;;;10.20;94.90;;;;;;5022638;28;20276;-82
2022/04/08 11:34:42;;;;;;;8.40;1.97;;;10.20;95.90;;;;;;5019032;28;20173;-80
2022/04/08 11:37:08;;;;;;;9.63;2.20;;;10.10;94.50;;;;;;5018423;28;20526;-81
2022/04/08 11:39:34;;;;;;;3.17;2.20;;;10.10;95.40;;;;;;5018119;28;20198;-82
2022/04/08 11:42:02;;;;;;;5.33;2.40;;;10.20;95.10;;;;;;5020099;28;20181;-81
2022/04/08 11:44:28;;;;;;;4.53;2.10;;;9.90;95.60;;;;;;5019429;28;20185;-80
2022/04/08 11:47:07;;;;;;;5.73;2.83;;;9.90;94.70;;;;;;5018564;28;20193;-79
2022/04/08 11:49:33;;;;;;;5.57;2.20;;;10.10;94.80;;;;;;5018831;28;20200;-80
2022/04/08 11:52:07;;;;;;;7.90;2.43;;;10.20;95.60;;;;;;5017638;28;20174;-81
2022/04/08 11:54:40;;;;;;;7.00;2.20;;;10.50;95.00;;;;;;5018126;28;20637;-81
2022/04/08 11:57:07;;;;;;;6.53;2.50;;;10.50;95.20;;;;;;5017862;28;20170;-80
2022/04/08 11:59:38;;;;;;;7.53;2.27;;;10.40;95.80;;;;;;5017580;28;20198;-79
2022/04/08 12:02:04;;;;;;;8.90;3.23;;;10.20;95.30;;;;;;5015954;28;20212;-81
2022/04/08 12:04:30;;;;;;;7.87;2.43;;;10.30;95.20;;;;;;5017676;28;20186;-81
2022/04/08 12:06:56;;;;;;;3.97;2.23;;;10.30;94.70;;;;;;5017535;28;20572;-82
2022/04/08 12:09:22;;;;;;;6.47;2.50;;;10.50;94.90;;;;;;5018939;28;20567;-80
2022/04/08 12:11:53;;;;;;;5.77;2.37;;;10.20;93.80;;;;;;5017506;28;20183;-80
2022/04/08 12:14:20;;;;;;;5.23;2.50;;;10.10;94.00;;;;;;5018001;28;20165;-80
2022/04/08 12:16:48;;;;;;;7.77;2.60;;;9.90;93.50;;;;;;5017886;28;20216;-78
2022/04/08 12:19:16;;;;;;;11.67;2.60;;;10.10;94.70;;;;;;5051790;22;20227;-78
2022/04/08 12:21:43;;;;;;;6.10;2.30;;;10.00;94.20;;;;;;5037764;28;20171;-78
2022/04/08 12:24:10;;;;;;;4.27;2.53;;;10.40;94.80;;;;;;5038225;28;20174;-78
2022/04/08 12:26:37;;;;;;;3.97;2.50;;;10.00;93.70;;;;;;5037130;28;20227;-78
2022/04/08 12:29:13;;;;;;;5.30;2.20;;;9.80;95.00;;;;;;5037275;28;20199;-78
2022/04/08 12:31:48;;;;;;;6.57;2.30;;;10.00;94.40;;;;;;5036759;28;20170;-78
2022/04/08 12:34:15;;;;;;;3.30;2.10;;;9.90;94.00;;;;;;5037682;28;20697;-78
2022/04/08 12:36:46;;;;;;;5.93;2.33;;;10.00;93.90;;;;;;5037118;28;20176;-78
2022/04/08 12:39:12;;;;;;;3.43;2.47;;;9.80;93.50;;;;;;5037883;28;20201;-77
2022/04/08 12:41:41;;;;;;;4.33;2.13;;;10.00;94.40;;;;;;5037148;28;20178;-77
2022/04/08 12:44:08;;;;;;;7.30;2.40;;;9.80;94.70;;;;;;5037445;28;20209;-78
2022/04/08 12:46:35;;;;;;;4.93;2.20;;;9.80;95.50;;;;;;5036936;28;20299;-79
2022/04/08 12:49:00;;;;;;;6.70;2.60;;;9.90;94.10;;;;;;5037750;28;20227;-78
2022/04/08 12:51:27;;;;;;;5.80;1.97;;;9.90;93.80;;;;;;5038102;28;20640;-79
2022/04/08 12:53:53;;;;;;;6.73;2.00;;;10.00;92.90;;;;;;5050471;28;20180;-79